Time;durP1;ratioP1;P1;durP2;ratioP2;P2;SDS_P1;SDS_P2;PMS_P1;PMS_P2;Temp;Humidity;BMP_temperature;BMP_pressure;BME280_temperature;BME280_humidity;BME280_pressure;Samples;Min_cycle;Max_cycle;Signal;HPM_P1;HPM_P2
2024/01/20 00:01:26;;;;;;;4.00;2.57;;;22.90;50.10;;;;;;5014765;28;20459;-83
2024/01/20 00:03:54;;;;;;;2.33;2.13;;;22.90;50.20;;;;;;5014735;28;20546;-81
2024/01/20 00:06:21;;;;;;;2.20;1.83;;;22.90;50.20;;;;;;5013966;28;20542;-82
2024/01/20 00:08:48;;;;;;;3.00;2.40;;;22.90;50.20;;;;;;5014463;28;20453;-81
2024/01/20 00:11:14;;;;;;;2.77;2.33;;;22.90;50.20;;;;;;5014367;28;20443;-81
2024/01/20 00:13:41;;;;;;;2.40;2.10;;;22.90;50.20;;;;;;5014451;28;20450;-81
2024/01/20 00:16:09;;;;;;;2.60;2.13;;;22.90;50.20;;;;;;5014786;28;20443;-92
2024/01/20 00:18:36;;;;;;;2.50;2.00;;;22.90;50.20;;;;;;5014630;28;20534;-92
2024/01/20 00:21:04;;;;;;;2.30;2.10;;;22.90;50.10;;;;;;5014796;28;20431;-87
2024/01/20 00:23:31;;;;;;;2.57;2.13;;;22.90;50.20;;;;;;5014701;28;20941;-83
2024/01/20 00:25:58;;;;;;;2.70;2.30;;;22.90;50.10;;;;;;5014697;28;20443;-85
2024/01/20 00:28:24;;;;;;;2.50;2.10;;;22.90;50.10;;;;;;5014390;28;20490;-85
2024/01/20 00:30:51;;;;;;;2.47;2.27;;;22.90;50.10;;;;;;5014329;28;20478;-81
2024/01/20 00:33:18;;;;;;;2.20;2.00;;;22.90;50.00;;;;;;5014167;28;20435;-81
2024/01/20 00:35:45;;;;;;;2.47;2.10;;;22.90;50.00;;;;;;5014045;28;20483;-81
2024/01/20 00:38:13;;;;;;;2.30;1.73;;;22.90;50.10;;;;;;5014083;28;20441;-81
2024/01/20 00:40:40;;;;;;;3.60;2.47;;;22.90;50.00;;;;;;5012966;28;20897;-81
2024/01/20 00:43:07;;;;;;;2.90;2.00;;;22.90;50.00;;;;;;5013951;28;20470;-81
2024/01/20 00:45:34;;;;;;;2.83;2.63;;;22.90;50.00;;;;;;5013764;28;20443;-81
2024/01/20 00:48:00;;;;;;;2.77;2.37;;;22.90;50.00;;;;;;5013790;28;20499;-81
2024/01/20 00:50:27;;;;;;;3.63;2.77;;;22.90;50.00;;;;;;5013137;28;20457;-81
2024/01/20 00:52:54;;;;;;;2.90;2.20;;;22.90;50.00;;;;;;5013121;28;20436;-81
2024/01/20 00:55:22;;;;;;;3.40;2.10;;;22.90;50.00;;;;;;5013818;28;20439;-81
2024/01/20 00:57:49;;;;;;;3.43;2.57;;;22.90;50.00;;;;;;5013693;28;20443;-81
2024/01/20 01:00:16;;;;;;;2.67;2.20;;;22.90;50.00;;;;;;5012783;28;20439;-81
2024/01/20 01:02:43;;;;;;;2.93;2.10;;;22.90;50.00;;;;;;5011709;28;20451;-81
2024/01/20 01:05:10;;;;;;;2.50;2.30;;;22.90;50.00;;;;;;5012709;28;20453;-81
2024/01/20 01:07:37;;;;;;;2.80;2.00;;;22.90;49.90;;;;;;4993028;28;20491;-81
2024/01/20 01:10:06;;;;;;;2.13;1.70;;;22.90;49.90;;;;;;4993179;28;20440;-81
2024/01/20 01:12:34;;;;;;;2.73;1.83;;;22.90;49.90;;;;;;4993426;28;20448;-81
2024/01/20 01:15:02;;;;;;;2.80;2.13;;;22.90;49.80;;;;;;4993349;28;20528;-82
2024/01/20 01:17:28;;;;;;;2.40;2.00;;;22.90;49.90;;;;;;4994171;28;20464;-82
2024/01/20 01:19:55;;;;;;;2.93;2.17;;;22.90;49.80;;;;;;4994207;28;20519;-82
2024/01/20 01:22:22;;;;;;;2.27;1.60;;;22.90;49.80;;;;;;4994055;28;20836;-81
2024/01/20 01:24:49;;;;;;;1.93;1.73;;;22.90;49.80;;;;;;4994343;28;20498;-81
2024/01/20 01:27:16;;;;;;;2.87;2.00;;;22.90;49.80;;;;;;4993448;28;21016;-92
2024/01/20 01:29:45;;;;;;;2.40;2.00;;;22.90;49.80;;;;;;4993862;28;20543;-81
2024/01/20 01:32:11;;;;;;;2.40;1.80;;;22.90;49.70;;;;;;4993720;28;20447;-81
2024/01/20 01:34:38;;;;;;;2.47;2.20;;;22.90;49.80;;;;;;4993578;28;20860;-81
2024/01/20 01:37:05;;;;;;;2.80;2.40;;;22.90;49.70;;;;;;5006648;28;20451;-81
2024/01/20 01:39:32;;;;;;;4.90;2.43;;;22.90;49.70;;;;;;5013149;28;21009;-81
2024/01/20 01:41:58;;;;;;;2.17;1.80;;;22.90;49.70;;;;;;5013265;28;20856;-81
2024/01/20 01:44:25;;;;;;;2.20;1.93;;;22.90;49.70;;;;;;5013073;28;20803;-81
2024/01/20 01:46:53;;;;;;;3.00;1.80;;;22.90;49.70;;;;;;5013135;28;20793;-81
2024/01/20 01:49:21;;;;;;;2.57;2.17;;;22.90;49.70;;;;;;5013055;28;20462;-83
2024/01/20 01:51:49;;;;;;;3.13;2.07;;;22.90;49.60;;;;;;5013120;28;20427;-81
2024/01/20 01:54:16;;;;;;;2.40;2.00;;;22.90;49.60;;;;;;5013060;28;20441;-81
2024/01/20 01:56:47;;;;;;;2.30;2.10;;;22.80;49.60;;;;;;5013054;28;20953;-81
2024/01/20 01:59:15;;;;;;;2.20;1.90;;;22.90;49.60;;;;;;5012975;28;20442;-81
2024/01/20 02:01:42;;;;;;;3.73;2.23;;;22.90;49.60;;;;;;5012920;28;20478;-81
2024/01/20 02:04:11;;;;;;;2.50;2.30;;;22.90;49.60;;;;;;5015522;28;20485;-81
2024/01/20 02:06:37;;;;;;;2.40;2.00;;;22.90;49.60;;;;;;5016887;28;20946;-81
2024/01/20 02:09:04;;;;;;;2.40;2.13;;;22.90;49.60;;;;;;5016760;28;20831;-81
2024/01/20 02:11:32;;;;;;;2.60;2.00;;;22.80;49.50;;;;;;5016725;28;20443;-81
2024/01/20 02:14:00;;;;;;;4.70;2.00;;;22.80;49.50;;;;;;5016675;28;20546;-81
2024/01/20 02:16:26;;;;;;;2.63;1.73;;;22.80;49.50;;;;;;5016818;28;20865;-88
2024/01/20 02:19:01;;;;;;;2.20;1.70;;;22.80;49.50;;;;;;5016746;28;20459;-81
2024/01/20 02:21:29;;;;;;;4.47;1.90;;;22.80;49.50;;;;;;5017023;28;20446;-89
2024/01/20 02:23:59;;;;;;;2.70;2.17;;;22.80;49.50;;;;;;5017168;28;20441;-89
2024/01/20 02:26:27;;;;;;;2.90;2.03;;;22.90;49.50;;;;;;5016405;28;20433;-82
2024/01/20 02:28:54;;;;;;;2.77;2.00;;;22.90;49.50;;;;;;5016513;28;20589;-82
2024/01/20 02:31:21;;;;;;;2.10;1.60;;;22.80;49.40;;;;;;5016665;28;20439;-83
2024/01/20 02:33:47;;;;;;;2.10;1.70;;;22.90;49.50;;;;;;5016533;28;20442;-81
2024/01/20 02:36:14;;;;;;;2.23;2.00;;;22.80;49.40;;;;;;5016140;28;20481;-81
2024/01/20 02:38:41;;;;;;;2.20;2.00;;;22.90;49.50;;;;;;5016215;28;20450;-81
2024/01/20 02:41:09;;;;;;;2.30;1.57;;;22.80;49.40;;;;;;5016443;28;20443;-81
2024/01/20 02:43:36;;;;;;;2.40;2.20;;;22.80;49.40;;;;;;5016414;28;20439;-81
2024/01/20 02:46:03;;;;;;;2.20;1.87;;;22.80;49.40;;;;;;5016532;28;20446;-81
2024/01/20 02:48:31;;;;;;;3.60;1.97;;;22.80;49.30;;;;;;5015982;28;21008;-81
2024/01/20 02:50:57;;;;;;;2.17;1.73;;;22.80;49.40;;;;;;5016230;28;20439;-81
2024/01/20 02:53:25;;;;;;;2.37;1.87;;;22.80;49.40;;;;;;5016305;28;20439;-81
2024/01/20 02:55:52;;;;;;;2.47;2.07;;;22.80;49.40;;;;;;5016213;28;20442;-81
2024/01/20 02:58:20;;;;;;;2.23;1.73;;;22.80;49.30;;;;;;5016289;28;20442;-81
2024/01/20 03:00:47;;;;;;;2.40;1.90;;;22.80;49.30;;;;;;5016228;28;20894;-81
2024/01/20 03:03:14;;;;;;;2.60;2.40;;;22.90;49.40;;;;;;5016087;28;20447;-81
2024/01/20 03:05:40;;;;;;;1.80;1.57;;;22.80;49.30;;;;;;5016037;28;20469;-81
2024/01/20 03:08:07;;;;;;;2.00;1.80;;;22.80;49.40;;;;;;5015892;28;21017;-81
2024/01/20 03:10:34;;;;;;;2.50;1.90;;;22.80;50.00;;;;;;5015788;28;20469;-81
2024/01/20 03:13:01;;;;;;;5.30;1.80;;;22.80;49.30;;;;;;5015708;28;20877;-81
2024/01/20 03:15:29;;;;;;;2.50;2.20;;;22.80;49.90;;;;;;5014997;28;20482;-81
2024/01/20 03:17:56;;;;;;;2.00;1.63;;;22.80;49.30;;;;;;5015587;28;20470;-81
2024/01/20 03:20:22;;;;;;;2.13;1.77;;;22.80;49.30;;;;;;5015712;28;20445;-81
2024/01/20 03:22:49;;;;;;;2.20;1.80;;;22.80;49.30;;;;;;5015725;28;20443;-81
2024/01/20 03:25:16;;;;;;;2.23;1.80;;;22.80;49.30;;;;;;5015651;28;20440;-81
2024/01/20 03:27:44;;;;;;;2.00;1.47;;;22.80;49.30;;;;;;5015553;28;20478;-81
2024/01/20 03:30:11;;;;;;;2.03;1.53;;;22.80;49.90;;;;;;5015670;28;20438;-81
2024/01/20 03:32:39;;;;;;;1.93;1.60;;;22.70;49.20;;;;;;5015553;28;20440;-81
2024/01/20 03:35:07;;;;;;;3.00;2.20;;;22.80;49.30;;;;;;5015198;28;20473;-80
2024/01/20 03:37:33;;;;;;;2.47;2.27;;;22.70;49.30;;;;;;5015439;28;20432;-81
2024/01/20 03:40:00;;;;;;;2.00;1.63;;;22.80;49.20;;;;;;5015400;28;20438;-81
2024/01/20 03:42:28;;;;;;;2.10;1.70;;;22.80;49.20;;;;;;5015273;28;20446;-81
2024/01/20 03:44:55;;;;;;;2.20;1.83;;;22.70;49.30;;;;;;5015231;28;20522;-81
2024/01/20 03:47:22;;;;;;;2.40;1.80;;;22.70;49.20;;;;;;5015080;28;20451;-81
2024/01/20 03:49:50;;;;;;;2.17;1.83;;;22.80;49.20;;;;;;5015119;28;20439;-81
2024/01/20 03:52:17;;;;;;;2.80;2.07;;;22.80;49.20;;;;;;5015180;28;20445;-90
2024/01/20 03:54:44;;;;;;;2.40;2.07;;;22.80;49.30;;;;;;5015080;28;20431;-81
2024/01/20 03:57:11;;;;;;;2.60;1.67;;;22.80;49.20;;;;;;5015011;28;20432;-81
2024/01/20 03:59:38;;;;;;;2.20;1.90;;;22.80;49.30;;;;;;5014952;28;20439;-91
2024/01/20 04:02:05;;;;;;;2.23;1.97;;;22.80;49.20;;;;;;5014840;28;20502;-81
2024/01/20 04:04:32;;;;;;;1.80;1.40;;;22.80;49.20;;;;;;5014998;28;20435;-91
2024/01/20 04:07:00;;;;;;;2.30;1.70;;;22.80;49.20;;;;;;5014750;28;20431;-92
2024/01/20 04:09:27;;;;;;;2.10;1.67;;;22.80;49.10;;;;;;5014672;28;20487;-81
2024/01/20 04:11:54;;;;;;;2.00;1.60;;;22.70;49.10;;;;;;5014846;28;20447;-81
2024/01/20 04:14:21;;;;;;;3.00;2.50;;;22.70;49.10;;;;;;5014798;28;20439;-93
2024/01/20 04:16:48;;;;;;;1.93;1.60;;;22.70;49.10;;;;;;5014763;28;20957;-81
2024/01/20 04:19:15;;;;;;;2.10;1.80;;;22.70;49.00;;;;;;5014566;28;20455;-81
2024/01/20 04:21:42;;;;;;;2.40;2.20;;;22.70;49.00;;;;;;5014590;28;20439;-92
2024/01/20 04:24:10;;;;;;;2.27;1.60;;;22.70;49.10;;;;;;5013644;28;20482;-81
2024/01/20 04:26:37;;;;;;;2.00;1.80;;;22.70;49.10;;;;;;5014368;28;20452;-81
2024/01/20 04:29:04;;;;;;;2.20;1.80;;;22.70;49.10;;;;;;5014148;28;20491;-82
2024/01/20 04:31:31;;;;;;;3.20;1.77;;;22.70;49.20;;;;;;5014503;28;20439;-81
2024/01/20 04:33:58;;;;;;;2.63;2.00;;;22.70;49.10;;;;;;5014485;28;20550;-89
2024/01/20 04:36:25;;;;;;;2.03;1.60;;;22.70;49.00;;;;;;5014163;28;20860;-93
2024/01/20 04:38:52;;;;;;;2.40;1.87;;;22.70;49.00;;;;;;5014582;28;20442;-81
2024/01/20 04:41:20;;;;;;;2.03;1.57;;;22.70;49.00;;;;;;5014082;28;20446;-81
2024/01/20 04:43:47;;;;;;;2.33;1.70;;;22.80;49.10;;;;;;5014423;28;20527;-82
2024/01/20 04:46:14;;;;;;;2.53;1.90;;;22.70;49.00;;;;;;5014539;28;20644;-81
2024/01/20 04:48:40;;;;;;;2.27;2.07;;;22.70;49.00;;;;;;5013833;28;20497;-81
2024/01/20 04:51:08;;;;;;;1.90;1.50;;;22.70;49.00;;;;;;5013981;28;20444;-82
2024/01/20 04:53:35;;;;;;;2.37;1.90;;;22.70;49.00;;;;;;5014137;28;20453;-81
2024/01/20 04:56:03;;;;;;;2.67;1.83;;;22.70;49.00;;;;;;5014077;28;20512;-81
2024/01/20 04:58:31;;;;;;;2.13;1.73;;;22.70;49.00;;;;;;5013882;28;20447;-81
2024/01/20 05:00:58;;;;;;;2.00;1.80;;;22.80;49.10;;;;;;5013269;28;20458;-81
2024/01/20 05:03:25;;;;;;;2.47;2.00;;;22.80;49.00;;;;;;5012539;28;20439;-81
2024/01/20 05:05:52;;;;;;;2.40;2.20;;;22.80;48.90;;;;;;5013396;28;20443;-81
2024/01/20 05:08:19;;;;;;;2.07;1.70;;;22.90;49.00;;;;;;5013333;28;20489;-81
2024/01/20 05:10:45;;;;;;;2.20;1.60;;;22.80;48.90;;;;;;5013547;28;20930;-81
2024/01/20 05:13:12;;;;;;;2.13;1.70;;;22.80;48.90;;;;;;5013709;28;20443;-81
2024/01/20 05:15:40;;;;;;;2.23;2.03;;;22.80;48.90;;;;;;5013720;28;20443;-82
2024/01/20 05:18:07;;;;;;;1.90;1.70;;;22.80;48.90;;;;;;5013536;28;20467;-81
2024/01/20 05:20:34;;;;;;;2.57;1.83;;;22.80;48.90;;;;;;5013810;28;20432;-82
2024/01/20 05:23:00;;;;;;;2.33;1.90;;;22.80;48.90;;;;;;5013626;28;20435;-82
2024/01/20 05:25:27;;;;;;;2.07;1.73;;;22.80;48.80;;;;;;5013896;28;20439;-82
2024/01/20 05:27:55;;;;;;;2.20;1.80;;;22.90;48.80;;;;;;5013725;28;20894;-81
2024/01/20 05:30:22;;;;;;;2.07;1.77;;;22.90;48.90;;;;;;5013811;28;20450;-90
2024/01/20 05:32:50;;;;;;;2.73;1.90;;;22.90;48.80;;;;;;5013740;28;20483;-81
2024/01/20 05:35:18;;;;;;;2.53;1.90;;;22.80;48.80;;;;;;5013029;28;20484;-81
2024/01/20 05:37:44;;;;;;;2.87;2.17;;;22.80;48.70;;;;;;5013252;28;20626;-81
2024/01/20 05:40:12;;;;;;;1.80;1.60;;;22.80;48.80;;;;;;5013692;28;20451;-81
2024/01/20 05:42:39;;;;;;;2.10;1.90;;;22.90;48.80;;;;;;5013446;28;20526;-81
2024/01/20 05:45:09;;;;;;;2.07;1.67;;;22.90;48.70;;;;;;5013396;28;20443;-81
2024/01/20 05:47:35;;;;;;;2.30;1.90;;;22.90;48.80;;;;;;5013129;28;20459;-81
2024/01/20 05:50:04;;;;;;;1.80;1.37;;;22.90;48.70;;;;;;5013188;28;20493;-82
2024/01/20 05:52:30;;;;;;;2.37;2.10;;;22.90;48.80;;;;;;5013541;28;20439;-81
2024/01/20 05:54:57;;;;;;;2.17;1.77;;;22.90;48.80;;;;;;5013388;28;20446;-81
2024/01/20 05:57:24;;;;;;;2.67;1.93;;;22.90;48.70;;;;;;5013371;28;20529;-81
2024/01/20 05:59:51;;;;;;;2.40;1.90;;;22.90;48.70;;;;;;5013311;28;20435;-81
2024/01/20 06:02:18;;;;;;;2.27;1.93;;;22.90;48.60;;;;;;5013391;28;20447;-82
2024/01/20 06:04:45;;;;;;;2.47;1.80;;;22.90;48.70;;;;;;5013271;28;20442;-92
2024/01/20 06:07:13;;;;;;;2.40;1.83;;;22.90;48.60;;;;;;5013413;28;20465;-82
2024/01/20 06:09:40;;;;;;;2.20;1.80;;;22.90;48.70;;;;;;5013385;28;20876;-82
2024/01/20 06:12:07;;;;;;;1.97;1.77;;;22.90;48.70;;;;;;5013528;28;20821;-82
2024/01/20 06:14:35;;;;;;;3.60;1.90;;;22.90;48.70;;;;;;5013508;28;20444;-91
2024/01/20 06:17:02;;;;;;;2.33;1.70;;;22.80;48.60;;;;;;5013166;28;20538;-82
2024/01/20 06:19:29;;;;;;;2.23;2.00;;;22.80;48.60;;;;;;5012999;28;20957;-82
2024/01/20 06:21:55;;;;;;;2.00;1.77;;;22.90;48.60;;;;;;5013037;28;20447;-82
2024/01/20 06:24:24;;;;;;;2.33;1.83;;;22.80;48.60;;;;;;5013105;28;20437;-81
2024/01/20 06:26:50;;;;;;;2.53;1.87;;;22.90;48.60;;;;;;5013125;28;20956;-81
2024/01/20 06:29:17;;;;;;;2.20;1.70;;;22.90;48.60;;;;;;5012851;28;20501;-81
2024/01/20 06:31:44;;;;;;;2.07;1.87;;;22.90;48.60;;;;;;5013214;28;20435;-81
2024/01/20 06:34:11;;;;;;;2.57;1.83;;;22.90;48.60;;;;;;5013121;28;20538;-81
2024/01/20 06:36:37;;;;;;;2.03;1.73;;;22.90;48.60;;;;;;5012854;28;20483;-81
2024/01/20 06:39:04;;;;;;;2.10;1.90;;;22.90;48.60;;;;;;5013086;28;20443;-81
2024/01/20 06:41:32;;;;;;;2.43;1.80;;;22.90;48.60;;;;;;5012885;28;20447;-81
2024/01/20 06:43:59;;;;;;;2.83;1.70;;;22.90;48.60;;;;;;5012988;28;20950;-81
2024/01/20 06:46:26;;;;;;;2.57;1.70;;;22.90;48.60;;;;;;5012904;28;20435;-82
2024/01/20 06:48:53;;;;;;;2.17;1.87;;;22.80;48.50;;;;;;5012554;28;20487;-88
2024/01/20 06:51:22;;;;;;;2.07;1.67;;;22.90;48.60;;;;;;5015312;28;20798;-81
2024/01/20 06:53:52;;;;;;;2.50;1.90;;;22.90;48.50;;;;;;5016353;28;20518;-81
2024/01/20 06:56:19;;;;;;;1.90;1.60;;;22.90;48.50;;;;;;5016246;28;20445;-82
2024/01/20 06:58:47;;;;;;;2.17;1.83;;;22.90;48.50;;;;;;5016172;28;20953;-81
2024/01/20 07:01:13;;;;;;;2.30;1.97;;;22.90;48.50;;;;;;5015994;28;20437;-81
2024/01/20 07:03:40;;;;;;;1.90;1.60;;;22.90;48.50;;;;;;5016121;28;20428;-82
2024/01/20 07:06:07;;;;;;;2.53;1.70;;;22.90;48.40;;;;;;5015948;28;20439;-82
2024/01/20 07:08:34;;;;;;;1.60;1.47;;;22.90;48.50;;;;;;5016000;28;20431;-82
2024/01/20 07:11:01;;;;;;;2.50;1.90;;;22.90;48.40;;;;;;5015980;28;20438;-82
2024/01/20 07:13:27;;;;;;;1.90;1.50;;;22.90;48.40;;;;;;5015953;28;20443;-81
2024/01/20 07:15:55;;;;;;;2.00;1.60;;;22.90;48.40;;;;;;5016169;28;20819;-81
2024/01/20 07:18:22;;;;;;;2.20;1.90;;;22.90;48.40;;;;;;5015785;28;20485;-81
2024/01/20 07:20:49;;;;;;;2.13;1.70;;;22.90;48.30;;;;;;5015926;28;20473;-82
2024/01/20 07:23:16;;;;;;;2.20;1.70;;;22.90;48.40;;;;;;5015743;28;20812;-81
2024/01/20 07:25:43;;;;;;;1.70;1.47;;;22.90;48.40;;;;;;5015670;28;20459;-80
2024/01/20 07:28:09;;;;;;;2.50;1.80;;;22.90;48.40;;;;;;5015455;28;20505;-81
2024/01/20 07:30:36;;;;;;;2.00;1.70;;;22.90;48.40;;;;;;5015490;28;20487;-81
2024/01/20 07:33:04;;;;;;;2.43;1.80;;;22.90;48.30;;;;;;5015848;28;20443;-80
2024/01/20 07:35:32;;;;;;;2.50;1.70;;;22.90;48.30;;;;;;5015387;28;20477;-82
2024/01/20 07:37:58;;;;;;;2.07;1.70;;;22.90;48.30;;;;;;5015608;28;20774;-81
2024/01/20 07:40:25;;;;;;;2.00;1.80;;;22.90;48.40;;;;;;5015578;28;20443;-81
2024/01/20 07:42:52;;;;;;;2.33;1.67;;;22.90;48.40;;;;;;5015530;28;20918;-81
2024/01/20 07:45:18;;;;;;;1.83;1.63;;;22.90;48.30;;;;;;5015479;28;20440;-80
2024/01/20 07:47:47;;;;;;;2.20;1.60;;;22.90;48.30;;;;;;5015269;28;20551;-81
2024/01/20 07:50:15;;;;;;;2.50;2.10;;;22.90;48.30;;;;;;5015199;28;20493;-81
2024/01/20 07:52:42;;;;;;;2.07;1.73;;;22.90;48.30;;;;;;5015146;28;20431;-81
2024/01/20 07:55:09;;;;;;;2.70;1.93;;;22.90;48.20;;;;;;5015258;28;20443;-81
2024/01/20 07:57:36;;;;;;;1.90;1.70;;;22.90;48.20;;;;;;5015212;28;20451;-80
2024/01/20 08:00:04;;;;;;;1.77;1.43;;;22.90;48.30;;;;;;5015216;28;20786;-80
2024/01/20 08:02:31;;;;;;;2.00;1.57;;;22.90;48.20;;;;;;5014835;28;20447;-81
2024/01/20 08:04:58;;;;;;;3.33;1.57;;;22.90;48.20;;;;;;5014990;28;20465;-81
2024/01/20 08:07:26;;;;;;;2.40;1.90;;;22.90;48.20;;;;;;5014979;28;20446;-81
2024/01/20 08:09:53;;;;;;;2.17;1.93;;;22.90;48.30;;;;;;5014909;28;20817;-91
2024/01/20 08:12:20;;;;;;;2.27;1.73;;;22.90;48.20;;;;;;5014798;28;20528;-82
2024/01/20 08:14:47;;;;;;;2.20;1.90;;;22.90;48.10;;;;;;5014915;28;20436;-80
2024/01/20 08:17:13;;;;;;;1.97;1.47;;;23.00;48.20;;;;;;5015014;28;20463;-82
2024/01/20 08:19:40;;;;;;;2.90;1.90;;;23.00;48.30;;;;;;5014569;28;20446;-80
2024/01/20 08:22:07;;;;;;;2.47;1.80;;;23.00;48.20;;;;;;4999274;28;20448;-82
2024/01/20 08:24:35;;;;;;;5.83;1.60;;;23.00;48.30;;;;;;4996146;28;20535;-80
2024/01/20 08:27:02;;;;;;;2.60;1.83;;;23.00;47.40;;;;;;4994941;28;20927;-79
2024/01/20 08:29:29;;;;;;;2.90;1.60;;;23.00;47.80;;;;;;4995319;28;20970;-79
2024/01/20 08:31:56;;;;;;;1.97;1.50;;;23.00;47.80;;;;;;4995410;28;20456;-79
2024/01/20 08:34:23;;;;;;;2.30;1.93;;;23.00;47.90;;;;;;4995037;28;20853;-92
2024/01/20 08:36:50;;;;;;;3.50;2.17;;;23.00;47.40;;;;;;4994697;28;20493;-79
2024/01/20 08:39:18;;;;;;;1.90;1.50;;;23.00;47.80;;;;;;4994928;28;20451;-79
2024/01/20 08:41:46;;;;;;;2.33;1.30;;;23.00;47.90;;;;;;4994891;28;20530;-79
2024/01/20 08:44:13;;;;;;;3.27;1.87;;;23.00;48.00;;;;;;4994711;28;20440;-79
2024/01/20 08:46:40;;;;;;;3.30;1.80;;;23.00;48.00;;;;;;4994730;28;20440;-79
2024/01/20 08:49:07;;;;;;;2.40;1.77;;;23.00;48.00;;;;;;4994616;28;20547;-79
2024/01/20 08:51:34;;;;;;;3.27;2.10;;;23.00;48.00;;;;;;4994825;28;20440;-81
2024/01/20 08:54:00;;;;;;;5.30;1.87;;;23.00;48.00;;;;;;4994828;28;20440;-85
2024/01/20 08:56:27;;;;;;;2.57;1.83;;;23.10;47.90;;;;;;4994590;28;20444;-79
2024/01/20 08:58:55;;;;;;;6.10;1.53;;;23.10;47.90;;;;;;4994427;28;20440;-79
2024/01/20 09:01:22;;;;;;;1.97;1.40;;;23.20;48.00;;;;;;4994620;28;20931;-79
2024/01/20 09:03:49;;;;;;;2.17;1.80;;;23.20;48.00;;;;;;4994206;28;20436;-85
2024/01/20 09:06:16;;;;;;;2.27;1.87;;;23.20;48.00;;;;;;4994159;28;20458;-79
2024/01/20 09:08:42;;;;;;;4.80;1.70;;;23.20;47.90;;;;;;4994035;28;20447;-79
2024/01/20 09:11:09;;;;;;;4.80;1.63;;;23.20;48.00;;;;;;4994340;28;20488;-79
2024/01/20 09:13:36;;;;;;;5.00;2.53;;;23.20;48.10;;;;;;4993925;28;20448;-79
2024/01/20 09:16:05;;;;;;;3.10;2.17;;;23.20;47.90;;;;;;4994577;28;20455;-79
2024/01/20 09:18:31;;;;;;;2.00;1.50;;;23.20;47.90;;;;;;4994895;28;20464;-79
2024/01/20 09:20:58;;;;;;;3.07;1.90;;;23.20;47.70;;;;;;4995872;28;20443;-80
2024/01/20 09:23:25;;;;;;;2.83;1.90;;;23.30;47.80;;;;;;4995580;28;20872;-79
2024/01/20 09:25:52;;;;;;;3.87;1.90;;;23.30;47.80;;;;;;4994901;28;20542;-79
2024/01/20 09:28:19;;;;;;;2.83;2.20;;;23.30;47.70;;;;;;4995163;28;20436;-79
2024/01/20 09:30:46;;;;;;;4.83;2.20;;;23.40;47.90;;;;;;4999011;28;20495;-78
2024/01/20 09:33:14;;;;;;;2.87;1.83;;;23.50;47.70;;;;;;5010332;28;20455;-94
2024/01/20 09:35:41;;;;;;;2.53;2.00;;;23.50;48.50;;;;;;5011589;28;20534;-79
2024/01/20 09:38:08;;;;;;;3.10;2.07;;;23.50;48.20;;;;;;5001226;28;20520;-79
2024/01/20 09:40:35;;;;;;;3.57;2.20;;;23.60;48.30;;;;;;4993848;28;20446;-78
2024/01/20 09:43:03;;;;;;;3.00;1.93;;;23.60;48.10;;;;;;5010977;28;20450;-79
2024/01/20 09:45:30;;;;;;;2.00;1.70;;;23.70;48.20;;;;;;5012481;28;20873;-79
2024/01/20 09:47:57;;;;;;;3.70;1.90;;;23.70;47.90;;;;;;5012017;28;21010;-79
2024/01/20 09:50:25;;;;;;;9.20;1.60;;;23.80;48.00;;;;;;5016181;28;20483;-93
2024/01/20 09:52:58;;;;;;;5.20;1.90;;;23.90;48.00;;;;;;5014047;28;20443;-81
2024/01/20 09:55:26;;;;;;;3.90;2.00;;;24.00;47.90;;;;;;5012737;28;20438;-82
2024/01/20 09:57:53;;;;;;;3.50;2.13;;;24.20;47.90;;;;;;5012279;28;21027;-81
2024/01/20 10:00:22;;;;;;;2.30;1.60;;;24.30;47.70;;;;;;5012419;28;20772;-81
2024/01/20 10:02:49;;;;;;;2.50;1.97;;;24.50;47.60;;;;;;5013403;28;20786;-81
2024/01/20 10:05:16;;;;;;;6.27;2.00;;;24.80;47.40;;;;;;5013682;28;20446;-81
2024/01/20 10:07:44;;;;;;;4.63;1.50;;;25.10;47.30;;;;;;5013095;28;20482;-81
2024/01/20 10:10:20;;;;;;;3.43;1.90;;;25.30;47.10;;;;;;5012444;28;20486;-81
2024/01/20 10:12:49;;;;;;;4.43;1.77;;;25.50;46.80;;;;;;5013545;28;20821;-81
2024/01/20 10:15:20;;;;;;;2.50;1.87;;;25.60;46.60;;;;;;5015141;28;20439;-81
2024/01/20 10:17:47;;;;;;;2.73;1.87;;;25.70;46.40;;;;;;5015324;28;20478;-82
2024/01/20 10:20:19;;;;;;;3.30;2.30;;;25.70;46.40;;;;;;5016727;28;20439;-81
2024/01/20 10:22:48;;;;;;;2.73;1.90;;;25.70;46.60;;;;;;5017029;28;20439;-85
2024/01/20 10:25:19;;;;;;;4.10;1.90;;;25.60;46.70;;;;;;5017913;28;20497;-81
2024/01/20 10:27:46;;;;;;;2.47;1.80;;;25.50;46.80;;;;;;5018551;28;20530;-82
2024/01/20 10:30:15;;;;;;;2.50;2.13;;;25.40;46.80;;;;;;5017821;28;20486;-81
2024/01/20 10:32:42;;;;;;;2.47;1.90;;;25.60;47.00;;;;;;5018783;28;20794;-81
2024/01/20 10:35:09;;;;;;;4.67;2.03;;;25.70;46.80;;;;;;5017798;28;20467;-81
2024/01/20 10:37:40;;;;;;;3.73;1.87;;;25.60;46.80;;;;;;5018537;28;20446;-83
2024/01/20 10:40:12;;;;;;;3.13;2.20;;;25.70;46.80;;;;;;5018639;28;20902;-86
2024/01/20 10:42:44;;;;;;;3.80;1.97;;;25.60;46.80;;;;;;5017497;28;20447;-81
2024/01/20 10:45:15;;;;;;;2.73;1.97;;;25.50;46.30;;;;;;5018288;28;20443;-81
2024/01/20 10:48:02;;;;;;;3.47;1.90;;;25.40;46.70;;;;;;5018497;28;20459;-81
2024/01/20 10:50:29;;;;;;;6.30;2.30;;;25.40;47.00;;;;;;5016892;28;20569;-83
2024/01/20 10:52:56;;;;;;;5.60;2.40;;;25.30;47.40;;;;;;5016637;28;20448;-81
2024/01/20 10:55:28;;;;;;;8.37;2.23;;;25.30;47.40;;;;;;5019438;28;20482;-81
2024/01/20 10:57:57;;;;;;;7.27;2.10;;;25.20;47.60;;;;;;5022399;28;20844;-81
2024/01/20 11:00:24;;;;;;;2.50;1.63;;;25.20;47.80;;;;;;5027414;28;20451;-81
2024/01/20 11:02:52;;;;;;;6.13;2.27;;;25.20;47.70;;;;;;5030736;28;20455;-81
2024/01/20 11:05:21;;;;;;;6.27;2.50;;;25.20;47.80;;;;;;5023711;28;20816;-81
2024/01/20 11:07:58;;;;;;;5.23;2.10;;;25.30;47.70;;;;;;5023798;28;20485;-82
2024/01/20 11:10:27;;;;;;;4.73;1.87;;;25.40;47.70;;;;;;5023590;28;20482;-81
2024/01/20 11:13:01;;;;;;;3.03;1.70;;;25.40;47.60;;;;;;5022412;28;20460;-81
2024/01/20 11:15:31;;;;;;;5.13;2.40;;;25.40;47.60;;;;;;5023171;28;20443;-81
2024/01/20 11:17:57;;;;;;;8.37;2.17;;;25.50;47.50;;;;;;5024660;28;20490;-81
2024/01/20 11:20:24;;;;;;;4.10;1.93;;;25.60;47.10;;;;;;5035218;23;20486;-82
2024/01/20 11:22:51;;;;;;;8.67;2.63;;;25.50;47.50;;;;;;5045963;28;20444;-81
2024/01/20 11:25:19;;;;;;;3.97;2.30;;;25.40;47.90;;;;;;5046263;28;20542;-81
2024/01/20 11:27:49;;;;;;;3.33;1.90;;;25.40;48.10;;;;;;5044852;28;20422;-81
2024/01/20 11:30:26;;;;;;;4.50;1.67;;;25.20;48.20;;;;;;5045003;28;20496;-82
2024/01/20 11:32:53;;;;;;;6.67;2.50;;;25.20;48.40;;;;;;5045398;28;20410;-82
2024/01/20 11:35:20;;;;;;;6.57;1.80;;;25.10;48.50;;;;;;5043516;28;20474;-82
2024/01/20 11:37:48;;;;;;;3.20;1.80;;;25.10;48.60;;;;;;5044245;28;20441;-82
2024/01/20 11:40:15;;;;;;;11.87;2.10;;;25.10;48.60;;;;;;5044076;28;20513;-81
2024/01/20 11:42:44;;;;;;;2.57;1.53;;;25.10;48.60;;;;;;5044867;28;20490;-81
2024/01/20 11:45:12;;;;;;;4.00;1.67;;;25.00;48.70;;;;;;5043847;28;20446;-81
2024/01/20 11:47:40;;;;;;;2.53;1.80;;;25.00;48.90;;;;;;5045434;28;20492;-81
2024/01/20 11:50:08;;;;;;;3.37;2.10;;;25.00;49.10;;;;;;5044048;28;20545;-81
2024/01/20 11:52:35;;;;;;;3.20;1.93;;;25.00;49.20;;;;;;5044060;28;20527;-81
2024/01/20 11:55:02;;;;;;;2.10;1.70;;;25.00;49.20;;;;;;5044740;28;20494;-81
2024/01/20 11:57:30;;;;;;;3.33;1.70;;;25.00;49.20;;;;;;5044213;28;20948;-81
2024/01/20 11:59:58;;;;;;;3.20;1.97;;;25.00;49.20;;;;;;5043779;28;20466;-82
2024/01/20 12:02:28;;;;;;;3.50;2.13;;;25.00;49.30;;;;;;5045742;28;20438;-81
2024/01/20 12:04:55;;;;;;;2.83;2.10;;;25.00;49.20;;;;;;5046342;28;20435;-82
2024/01/20 12:07:22;;;;;;;3.47;1.90;;;25.00;49.20;;;;;;5044867;28;20440;-81
2024/01/20 12:09:51;;;;;;;2.60;1.73;;;25.00;49.30;;;;;;5044740;28;20438;-81
2024/01/20 12:12:19;;;;;;;2.60;2.03;;;25.00;49.30;;;;;;5043921;28;20505;-81
2024/01/20 12:14:47;;;;;;;3.27;1.50;;;24.90;49.30;;;;;;5040289;28;20450;-82
2024/01/20 12:17:15;;;;;;;3.13;1.90;;;24.90;49.20;;;;;;5044041;28;20467;-82
2024/01/20 12:19:43;;;;;;;3.00;1.80;;;24.90;49.30;;;;;;5043197;28;20442;-84
2024/01/20 12:22:12;;;;;;;4.40;1.97;;;25.00;49.20;;;;;;5042250;28;20536;-82
2024/01/20 12:24:45;;;;;;;3.80;2.33;;;24.90;49.10;;;;;;5077584;22;21007;-80
2024/01/20 12:27:12;;;;;;;3.73;2.00;;;24.90;49.20;;;;;;5043534;28;20504;-81
2024/01/20 12:29:39;;;;;;;3.17;2.23;;;24.80;49.20;;;;;;5041094;28;20521;-81
2024/01/20 12:32:06;;;;;;;4.07;2.03;;;24.80;49.60;;;;;;5042424;28;20486;-82
2024/01/20 12:34:33;;;;;;;4.50;2.20;;;24.80;49.90;;;;;;5042787;28;20567;-81
2024/01/20 12:37:01;;;;;;;4.97;2.70;;;24.80;49.90;;;;;;5043868;28;20445;-81
2024/01/20 12:39:28;;;;;;;4.50;2.30;;;24.80;50.10;;;;;;5048943;28;20438;-81
2024/01/20 12:41:55;;;;;;;4.60;2.57;;;24.80;50.30;;;;;;5044596;28;20457;-81
2024/01/20 12:44:22;;;;;;;3.87;2.37;;;24.70;50.20;;;;;;5044733;28;20441;-81
2024/01/20 12:46:49;;;;;;;4.93;2.47;;;24.70;50.40;;;;;;5043759;28;20473;-81
2024/01/20 12:49:16;;;;;;;6.40;2.70;;;24.70;50.40;;;;;;5041965;28;20468;-81